createdAt,value
2018-07-30T00:01:31.755Z,10.28
2018-07-30T00:04:00.486Z,9.57
2018-07-30T00:06:29.132Z,8.77
2018-07-30T00:08:59.240Z,10.23
2018-07-30T00:11:28.441Z,9.70
2018-07-30T00:13:57.237Z,8.33
2018-07-30T00:16:26.022Z,10.37
2018-07-30T00:18:54.847Z,9.00
2018-07-30T00:21:23.698Z,9.60
2018-07-30T00:23:53.009Z,9.17
2018-07-30T00:26:22.791Z,9.68
2018-07-30T00:28:51.611Z,9.07
2018-07-30T00:31:20.883Z,8.85
2018-07-30T00:33:49.849Z,10.00
2018-07-30T00:36:18.697Z,8.70
2018-07-30T00:38:47.715Z,9.80
2018-07-30T00:41:16.866Z,9.78
2018-07-30T00:43:45.655Z,9.20
2018-07-30T00:46:14.722Z,9.58
2018-07-30T00:48:43.832Z,11.20
2018-07-30T00:51:12.660Z,8.90
2018-07-30T00:53:41.212Z,9.00
2018-07-30T00:56:10.004Z,9.80
2018-07-30T00:58:38.993Z,9.00
2018-07-30T01:01:07.748Z,8.87
2018-07-30T01:03:36.491Z,10.35
2018-07-30T01:06:05.407Z,9.67
2018-07-30T01:08:34.445Z,9.20
2018-07-30T01:11:03.219Z,9.20
2018-07-30T01:13:31.987Z,8.90
2018-07-30T01:16:00.695Z,8.90
2018-07-30T01:18:30.009Z,9.30
2018-07-30T01:20:58.779Z,9.57
2018-07-30T01:23:28.287Z,9.50
2018-07-30T01:25:57.110Z,9.33
2018-07-30T01:28:25.983Z,8.37
2018-07-30T01:30:55.823Z,8.93
2018-07-30T01:33:24.867Z,8.87
2018-07-30T01:35:53.890Z,9.23
2018-07-30T01:38:23.107Z,8.73
2018-07-30T01:40:51.864Z,9.13
2018-07-30T01:43:20.594Z,9.03
2018-07-30T01:45:49.364Z,8.37
2018-07-30T01:48:18.116Z,8.60
2018-07-30T01:50:46.652Z,8.20
2018-07-30T01:53:15.716Z,8.30
2018-07-30T01:55:44.591Z,8.83
2018-07-30T01:58:13.368Z,8.23
2018-07-30T02:00:42.174Z,8.67
2018-07-30T02:03:11.211Z,8.87
2018-07-30T02:05:39.952Z,8.40
2018-07-30T02:08:08.692Z,9.20
2018-07-30T02:10:37.176Z,8.73
2018-07-30T02:13:06.028Z,9.70
2018-07-30T02:15:34.831Z,8.13
2018-07-30T02:18:03.873Z,8.63
2018-07-30T02:20:32.661Z,8.58
2018-07-30T02:23:01.651Z,8.23
2018-07-30T02:25:30.439Z,8.70
2018-07-30T02:27:59.218Z,7.97
2018-07-30T02:30:27.947Z,8.47
2018-07-30T02:32:56.651Z,8.77
2018-07-30T02:35:25.282Z,9.33
2018-07-30T02:37:54.174Z,8.17
2018-07-30T02:40:23.246Z,8.43
2018-07-30T02:42:52.056Z,8.37
2018-07-30T02:45:20.845Z,8.93
2018-07-30T02:47:50.043Z,8.90
2018-07-30T02:50:18.686Z,7.80
2018-07-30T02:52:47.454Z,9.77
2018-07-30T02:55:16.194Z,8.43
2018-07-30T02:57:45.004Z,8.23
2018-07-30T03:00:13.882Z,8.23
2018-07-30T03:02:42.703Z,8.33
2018-07-30T03:05:11.573Z,8.38
2018-07-30T03:07:40.274Z,8.13
2018-07-30T03:10:09.132Z,8.70
2018-07-30T03:12:38.030Z,8.23
2018-07-30T03:15:06.979Z,8.80
2018-07-30T03:17:35.508Z,8.03
2018-07-30T03:20:04.699Z,8.07
2018-07-30T03:22:33.261Z,8.17
2018-07-30T03:25:02.073Z,7.07
2018-07-30T03:27:30.834Z,8.05
2018-07-30T03:29:59.889Z,7.07
2018-07-30T03:32:29.086Z,8.45
2018-07-30T03:34:57.811Z,7.80
2018-07-30T03:37:26.599Z,8.80
2018-07-30T03:39:55.670Z,7.77
2018-07-30T03:42:24.623Z,8.13
2018-07-30T03:44:53.702Z,8.73
2018-07-30T03:47:23.150Z,7.67
2018-07-30T03:49:51.870Z,8.13
2018-07-30T03:52:20.894Z,8.55
2018-07-30T03:54:49.858Z,7.67
2018-07-30T03:57:18.628Z,8.13
2018-07-30T03:59:47.324Z,8.47
2018-07-30T04:02:16.053Z,8.00
2018-07-30T04:04:44.823Z,7.70
2018-07-30T04:07:13.561Z,8.43
2018-07-30T04:09:42.287Z,7.53
2018-07-30T04:12:11.027Z,8.30
2018-07-30T04:14:39.739Z,8.27
2018-07-30T04:17:08.624Z,8.27
2018-07-30T04:19:37.375Z,9.35
2018-07-30T04:22:06.164Z,8.57
2018-07-30T04:24:35.122Z,11.00
2018-07-30T04:27:03.862Z,9.43
2018-07-30T04:29:32.338Z,8.97
2018-07-30T04:32:01.056Z,9.87
2018-07-30T04:34:29.553Z,8.43
2018-07-30T04:36:58.487Z,9.00
2018-07-30T04:39:27.207Z,9.50
2018-07-30T04:41:55.983Z,8.83
2018-07-30T04:44:24.485Z,8.73
2018-07-30T04:46:53.156Z,8.83
2018-07-30T04:49:22.913Z,11.27
2018-07-30T04:51:51.523Z,9.37
2018-07-30T04:54:20.066Z,9.73
2018-07-30T04:56:49.154Z,10.13
2018-07-30T04:59:18.113Z,8.83
2018-07-30T05:01:46.657Z,8.17
2018-07-30T05:04:15.423Z,8.93
2018-07-30T05:06:44.167Z,8.23
2018-07-30T05:09:12.991Z,10.10
2018-07-30T05:11:41.610Z,10.07
2018-07-30T05:14:09.846Z,11.37
2018-07-30T05:16:38.746Z,7.93
2018-07-30T05:19:07.563Z,8.07
2018-07-30T05:21:36.328Z,7.10
2018-07-30T05:24:05.136Z,7.60
2018-07-30T05:26:34.139Z,7.03
2018-07-30T05:29:03.180Z,7.78
2018-07-30T05:31:32.216Z,10.13
2018-07-30T05:34:00.995Z,7.57
2018-07-30T05:36:29.541Z,7.73
2018-07-30T05:38:58.255Z,8.63
2018-07-30T05:41:27.042Z,11.20
2018-07-30T05:43:56.160Z,7.07
2018-07-30T05:46:25.087Z,7.03
2018-07-30T05:48:54.681Z,6.08
2018-07-30T05:51:23.623Z,6.60
2018-07-30T05:53:52.507Z,6.33
2018-07-30T05:56:21.252Z,6.97
2018-07-30T05:58:50.155Z,9.47
2018-07-30T06:01:19.238Z,6.80
2018-07-30T06:03:48.250Z,6.83
2018-07-30T06:06:17.015Z,6.27
2018-07-30T06:08:45.793Z,11.20
2018-07-30T06:11:14.690Z,5.97
2018-07-30T06:13:43.448Z,7.17
2018-07-30T06:16:12.244Z,6.90
2018-07-30T06:18:41.084Z,7.78
2018-07-30T06:21:10.146Z,8.08
2018-07-30T06:23:39.207Z,7.83
2018-07-30T06:26:08.325Z,6.05
2018-07-30T06:28:37.057Z,6.95
2018-07-30T06:31:06.220Z,7.55
2018-07-30T06:33:35.439Z,7.78
2018-07-30T06:36:04.260Z,8.70
2018-07-30T06:38:33.379Z,6.65
2018-07-30T06:41:02.397Z,6.53
2018-07-30T06:43:31.410Z,6.60
2018-07-30T06:46:00.176Z,6.13
2018-07-30T06:48:29.349Z,7.10
2018-07-30T06:50:58.271Z,7.70
2018-07-30T06:53:27.285Z,7.03
2018-07-30T06:55:56.324Z,7.55
2018-07-30T06:58:25.850Z,7.30
2018-07-30T07:00:54.678Z,6.87
2018-07-30T07:03:23.865Z,6.93
2018-07-30T07:05:52.726Z,5.90
2018-07-30T07:08:21.558Z,6.10
2018-07-30T07:10:50.386Z,6.73
2018-07-30T07:13:19.374Z,7.37
2018-07-30T07:15:48.214Z,8.73
2018-07-30T07:18:17.332Z,7.53
2018-07-30T07:20:46.261Z,7.77
2018-07-30T07:23:15.228Z,6.53
2018-07-30T07:25:44.330Z,6.72
2018-07-30T07:28:13.178Z,8.60
2018-07-30T07:30:41.716Z,6.50
2018-07-30T07:33:10.496Z,9.30
2018-07-30T07:35:39.351Z,9.93
2018-07-30T07:38:08.191Z,8.03
2018-07-30T07:40:37.232Z,8.15
2018-07-30T07:43:06.254Z,8.25
2018-07-30T07:45:35.315Z,7.83
2018-07-30T07:48:04.375Z,14.45
2018-07-30T07:50:33.252Z,7.92
2018-07-30T07:53:02.066Z,10.97
2018-07-30T07:55:30.850Z,7.37
2018-07-30T07:57:59.736Z,6.70
2018-07-30T08:00:28.588Z,7.73
2018-07-30T08:02:57.338Z,7.07
2018-07-30T08:05:26.554Z,6.30
2018-07-30T08:07:55.304Z,8.80
2018-07-30T08:10:23.897Z,6.70
2018-07-30T08:12:52.749Z,6.13
2018-07-30T08:15:21.638Z,9.33
2018-07-30T08:17:50.414Z,8.47
2018-07-30T08:20:19.167Z,11.03
2018-07-30T08:22:48.262Z,6.08
2018-07-30T08:25:17.303Z,6.35
2018-07-30T08:27:46.324Z,7.12
2018-07-30T08:30:15.402Z,9.68
2018-07-30T08:32:44.179Z,7.23
2018-07-30T08:35:13.034Z,11.07
2018-07-30T08:37:41.518Z,6.57
2018-07-30T08:40:10.286Z,6.20
2018-07-30T08:42:39.324Z,11.80
2018-07-30T08:45:08.373Z,6.05
2018-07-30T08:47:37.687Z,7.12
2018-07-30T08:50:06.566Z,7.07
2018-07-30T08:52:35.519Z,6.00
2018-07-30T08:55:04.685Z,8.00
2018-07-30T08:57:33.419Z,6.17
2018-07-30T09:00:02.234Z,7.00
2018-07-30T09:02:31.055Z,9.50
2018-07-30T09:05:00.306Z,8.35
2018-07-30T09:07:29.503Z,7.72
2018-07-30T09:09:58.266Z,6.50
2018-07-30T09:12:27.229Z,6.73
2018-07-30T09:14:56.408Z,9.55
2018-07-30T09:17:25.597Z,6.80
2018-07-30T09:19:54.395Z,6.27
2018-07-30T09:22:23.572Z,6.72
2018-07-30T09:24:52.878Z,8.93
2018-07-30T09:27:21.826Z,6.40
2018-07-30T09:29:50.785Z,6.43
2018-07-30T09:32:19.589Z,6.20
2018-07-30T09:34:48.463Z,7.63
2018-07-30T09:37:17.562Z,6.37
2018-07-30T09:39:46.376Z,6.33
2018-07-30T09:42:15.514Z,8.48
2018-07-30T09:44:44.732Z,7.37
2018-07-30T09:47:13.667Z,7.23
2018-07-30T09:49:42.479Z,6.93
2018-07-30T09:52:11.543Z,10.38
2018-07-30T09:54:40.347Z,9.77
2018-07-30T09:57:09.442Z,6.12
2018-07-30T09:59:38.024Z,10.47
2018-07-30T10:02:06.873Z,10.63
2018-07-30T10:04:35.639Z,7.08
2018-07-30T10:07:04.760Z,7.47
2018-07-30T10:09:33.582Z,5.90
2018-07-30T10:12:02.377Z,8.40
2018-07-30T10:14:31.093Z,7.10
2018-07-30T10:16:59.991Z,5.73
2018-07-30T10:19:28.760Z,6.70
2018-07-30T10:21:57.525Z,7.90
2018-07-30T10:24:26.647Z,10.13
2018-07-30T10:26:55.355Z,6.13
2018-07-30T10:29:23.986Z,5.10
2018-07-30T10:31:52.754Z,6.00
2018-07-30T10:34:21.594Z,5.47
2018-07-30T10:36:50.470Z,8.43
2018-07-30T10:39:19.524Z,8.48
2018-07-30T10:41:48.569Z,9.85
2018-07-30T10:44:17.741Z,9.18
2018-07-30T10:46:46.536Z,16.90
2018-07-30T10:49:15.693Z,14.53
2018-07-30T10:51:44.455Z,12.07
2018-07-30T10:54:13.419Z,9.63
2018-07-30T10:56:41.951Z,7.10
2018-07-30T10:59:10.751Z,7.03
2018-07-30T11:01:39.555Z,10.05
2018-07-30T11:04:08.583Z,6.65
2018-07-30T11:06:37.643Z,7.53
2018-07-30T11:09:08.235Z,7.30
2018-07-30T11:11:37.032Z,6.53
2018-07-30T11:14:06.184Z,6.80
2018-07-30T11:16:34.967Z,7.07
2018-07-30T11:19:04.295Z,5.97
2018-07-30T11:21:33.113Z,4.97
2018-07-30T11:24:02.029Z,5.80
2018-07-30T11:26:30.880Z,5.80
2018-07-30T11:28:59.845Z,6.90
2018-07-30T11:31:28.671Z,5.13
2018-07-30T11:33:57.438Z,5.00
2018-07-30T11:36:25.961Z,5.43
2018-07-30T11:38:54.763Z,5.77
2018-07-30T11:41:23.983Z,7.17
2018-07-30T11:43:52.800Z,5.17
2018-07-30T11:46:21.848Z,5.17
2018-07-30T11:48:50.635Z,5.43
2018-07-30T11:51:19.543Z,5.10
2018-07-30T11:53:48.578Z,7.10
2018-07-30T11:56:18.041Z,5.53
2018-07-30T11:58:47.663Z,7.00
2018-07-30T12:01:16.484Z,5.00
2018-07-30T12:03:45.990Z,7.08
2018-07-30T12:06:14.789Z,5.30
2018-07-30T12:08:44.062Z,7.60
2018-07-30T12:11:13.103Z,8.67
2018-07-30T12:13:41.833Z,5.53
2018-07-30T12:16:10.751Z,5.53
2018-07-30T12:18:39.926Z,5.47
2018-07-30T12:21:08.938Z,5.57
2018-07-30T12:23:38.091Z,5.87
2018-07-30T12:26:07.687Z,6.20
2018-07-30T12:28:36.780Z,5.80
2018-07-30T12:31:05.807Z,7.47
2018-07-30T12:33:34.770Z,6.30
2018-07-30T12:36:03.494Z,5.63
2018-07-30T12:38:32.016Z,6.30
2018-07-30T12:41:00.774Z,5.80
2018-07-30T12:43:29.578Z,5.33
2018-07-30T12:45:58.628Z,6.15
2018-07-30T12:48:27.927Z,6.25
2018-07-30T12:50:56.716Z,4.87
2018-07-30T12:53:25.857Z,5.72
2018-07-30T12:55:54.587Z,5.77
2018-07-30T12:58:24.235Z,6.03
2018-07-30T13:00:53.051Z,5.30
2018-07-30T13:03:21.797Z,5.57
2018-07-30T13:05:50.547Z,5.43
2018-07-30T13:08:19.382Z,5.60
2018-07-30T13:10:48.351Z,5.60
2018-07-30T13:13:17.166Z,5.77
2018-07-30T13:15:45.990Z,5.33
2018-07-30T13:18:14.812Z,5.17
2018-07-30T13:20:43.591Z,5.63
2018-07-30T13:23:12.375Z,6.13
2018-07-30T13:25:41.125Z,6.13
2018-07-30T13:28:09.988Z,5.43
2018-07-30T13:30:38.732Z,6.23
2018-07-30T13:33:07.766Z,6.00
2018-07-30T13:35:36.551Z,6.77
2018-07-30T13:38:06.038Z,6.07
2018-07-30T13:40:34.923Z,5.10
2018-07-30T13:43:03.671Z,5.50
2018-07-30T13:45:32.288Z,6.03
2018-07-30T13:48:01.436Z,5.27
2018-07-30T13:50:30.853Z,9.03
2018-07-30T13:52:59.666Z,10.17
2018-07-30T13:55:28.176Z,5.53
2018-07-30T13:57:56.902Z,7.27
2018-07-30T14:00:25.646Z,5.97
2018-07-30T14:02:54.350Z,7.37
2018-07-30T14:05:23.906Z,5.50
2018-07-30T14:07:52.610Z,6.67
2018-07-30T14:10:21.400Z,5.80
2018-07-30T14:12:50.230Z,6.00
2018-07-30T14:15:19.208Z,5.63
2018-07-30T14:17:48.078Z,12.33
2018-07-30T14:20:17.092Z,5.70
2018-07-30T14:22:45.969Z,10.67
2018-07-30T14:25:14.721Z,5.73
2018-07-30T14:27:43.474Z,5.93
2018-07-30T14:30:12.240Z,5.80
2018-07-30T14:32:41.039Z,5.33
2018-07-30T14:35:09.859Z,5.23
2018-07-30T14:37:38.318Z,5.70
2018-07-30T14:40:10.468Z,6.37
2018-07-30T14:42:39.358Z,4.90
2018-07-30T14:45:08.254Z,5.33
2018-07-30T14:47:37.353Z,4.97
2018-07-30T14:50:06.680Z,5.23
2018-07-30T14:52:35.578Z,4.60
2018-07-30T14:55:04.690Z,5.17
2018-07-30T14:57:33.520Z,5.50
2018-07-30T15:00:02.240Z,5.60
2018-07-30T15:02:31.035Z,5.70
2018-07-30T15:04:59.815Z,6.77
2018-07-30T15:07:28.261Z,4.87
2018-07-30T15:09:57.134Z,5.47
2018-07-30T15:12:26.287Z,7.87
2018-07-30T15:14:55.726Z,5.63
2018-07-30T15:17:24.368Z,5.53
2018-07-30T15:19:53.161Z,5.30
2018-07-30T15:22:21.870Z,7.47
2018-07-30T15:24:50.914Z,5.10
2018-07-30T15:27:20.006Z,6.10
2018-07-30T15:29:48.827Z,6.03
2018-07-30T15:32:17.867Z,4.92
2018-07-30T15:34:46.904Z,4.87
2018-07-30T15:37:16.020Z,5.03
2018-07-30T15:39:44.779Z,5.27
2018-07-30T15:42:13.492Z,4.30
2018-07-30T15:44:42.112Z,5.97
2018-07-30T15:47:10.847Z,5.30
2018-07-30T15:49:39.991Z,4.87
2018-07-30T15:52:09.078Z,4.87
2018-07-30T15:54:37.849Z,4.50
2018-07-30T15:57:07.051Z,4.87
2018-07-30T15:59:35.762Z,4.28
2018-07-30T16:02:04.552Z,4.73
2018-07-30T16:04:33.386Z,4.67
2018-07-30T16:07:02.102Z,4.13
2018-07-30T16:09:30.910Z,4.70
2018-07-30T16:11:59.999Z,4.42
2018-07-30T16:14:29.045Z,5.17
2018-07-30T16:16:57.895Z,5.57
2018-07-30T16:19:26.747Z,5.67
2018-07-30T16:21:55.637Z,5.63
2018-07-30T16:24:24.431Z,5.80
2018-07-30T16:26:53.223Z,4.63
2018-07-30T16:29:21.975Z,4.30
2018-07-30T16:31:51.031Z,5.45
2018-07-30T16:34:20.131Z,5.12
2018-07-30T16:36:48.937Z,4.80
2018-07-30T16:39:18.027Z,5.28
2018-07-30T16:41:46.867Z,6.53
2018-07-30T16:44:15.758Z,4.80
2018-07-30T16:46:44.663Z,4.70
2018-07-30T16:49:13.561Z,4.53
2018-07-30T16:51:42.069Z,4.53
2018-07-30T16:54:11.201Z,4.35
2018-07-30T16:56:39.948Z,4.60
2018-07-30T16:59:09.074Z,4.92
2018-07-30T17:01:38.173Z,4.35
2018-07-30T17:04:07.071Z,4.60
2018-07-30T17:06:36.031Z,6.03
2018-07-30T17:09:08.449Z,4.85
2018-07-30T17:11:37.243Z,4.60
2018-07-30T17:14:06.131Z,5.20
2018-07-30T17:16:35.230Z,5.22
2018-07-30T17:19:04.443Z,11.47
2018-07-30T17:21:33.264Z,9.07
2018-07-30T17:24:02.051Z,4.23
2018-07-30T17:26:30.567Z,4.77
2018-07-30T17:28:59.389Z,4.97
2018-07-30T17:31:28.340Z,5.57
2018-07-30T17:33:57.137Z,5.77
2018-07-30T17:36:26.266Z,5.75
2018-07-30T17:38:55.011Z,5.10
2018-07-30T17:41:24.207Z,4.92
2018-07-30T17:43:53.068Z,4.80
2018-07-30T17:46:22.315Z,5.90
2018-07-30T17:48:51.582Z,5.00
2018-07-30T17:51:20.469Z,5.40
2018-07-30T17:53:49.315Z,6.30
2018-07-30T17:56:18.208Z,6.47
2018-07-30T17:58:47.222Z,7.80
2018-07-30T18:01:16.216Z,6.60
2018-07-30T18:03:44.954Z,5.27
2018-07-30T18:06:13.760Z,7.60
2018-07-30T18:08:42.415Z,5.93
2018-07-30T18:11:11.197Z,5.87
2018-07-30T18:13:40.207Z,5.47
2018-07-30T18:16:09.064Z,6.00
2018-07-30T18:18:38.164Z,5.67
2018-07-30T18:21:07.195Z,7.70
2018-07-30T18:23:36.281Z,7.10
2018-07-30T18:26:05.175Z,7.37
2018-07-30T18:28:34.291Z,7.72
2018-07-30T18:31:03.035Z,9.13
2018-07-30T18:33:31.803Z,6.10
2018-07-30T18:36:00.802Z,5.70
2018-07-30T18:38:29.561Z,6.47
2018-07-30T18:40:58.280Z,7.63
2018-07-30T18:43:27.051Z,10.17
2018-07-30T18:45:55.844Z,6.07
2018-07-30T18:48:24.632Z,6.17
2018-07-30T18:50:53.452Z,6.17
2018-07-30T18:53:22.432Z,6.33
2018-07-30T18:55:51.244Z,5.90
2018-07-30T18:58:20.258Z,6.97
2018-07-30T19:00:49.026Z,10.00
2018-07-30T19:03:17.882Z,7.83
2018-07-30T19:05:46.768Z,7.57
2018-07-30T19:08:15.511Z,8.53
2018-07-30T19:10:44.272Z,6.90
2018-07-30T19:13:13.463Z,7.28
2018-07-30T19:15:42.257Z,7.22
2018-07-30T19:18:11.301Z,9.03
2018-07-30T19:20:41.220Z,10.80
2018-07-30T19:23:09.984Z,10.07
2018-07-30T19:25:38.539Z,10.43
2018-07-30T19:28:07.329Z,9.07
2018-07-30T19:30:36.343Z,19.48
2018-07-30T19:33:05.374Z,12.30
2018-07-30T19:35:34.294Z,9.53
2018-07-30T19:38:03.436Z,13.98
2018-07-30T19:40:32.052Z,40.07
2018-07-30T19:43:00.888Z,20.27
2018-07-30T19:45:29.794Z,13.50
2018-07-30T19:47:58.600Z,13.37
2018-07-30T19:50:27.921Z,11.07
2018-07-30T19:52:56.815Z,10.73
2018-07-30T19:55:26.016Z,9.83
2018-07-30T19:57:55.776Z,15.90
2018-07-30T20:00:24.858Z,10.17
2018-07-30T20:02:53.677Z,28.60
2018-07-30T20:05:22.657Z,28.10
2018-07-30T20:07:51.991Z,16.07
2018-07-30T20:10:20.859Z,20.30
2018-07-30T20:12:49.611Z,23.90
2018-07-30T20:15:18.459Z,21.60
2018-07-30T20:17:47.565Z,16.80
2018-07-30T20:20:17.749Z,14.07
2018-07-30T20:22:46.868Z,17.57
2018-07-30T20:25:16.016Z,13.07
2018-07-30T20:27:45.331Z,12.30
2018-07-30T20:30:14.398Z,17.37
2018-07-30T20:32:44.892Z,17.13
2018-07-30T20:35:13.727Z,14.83
2018-07-30T20:37:42.983Z,11.97
2018-07-30T20:40:11.981Z,13.60
2018-07-30T20:42:40.611Z,13.77
2018-07-30T20:45:09.468Z,13.40
2018-07-30T20:47:38.307Z,15.38
2018-07-30T20:50:07.337Z,11.53
2018-07-30T20:52:36.460Z,12.78
2018-07-30T20:55:05.267Z,13.83
2018-07-30T20:57:34.366Z,13.30
2018-07-30T21:00:03.441Z,14.03
2018-07-30T21:02:32.534Z,15.55
2018-07-30T21:05:01.598Z,12.23
2018-07-30T21:07:30.696Z,11.93
2018-07-30T21:09:59.552Z,11.77
2018-07-30T21:12:28.304Z,12.53
2018-07-30T21:14:57.354Z,10.80
2018-07-30T21:17:26.362Z,10.63
2018-07-30T21:19:55.603Z,12.13
2018-07-30T21:22:24.811Z,10.00
2018-07-30T21:24:53.547Z,10.30
2018-07-30T21:27:22.579Z,11.43
2018-07-30T21:29:51.395Z,9.67
2018-07-30T21:32:20.559Z,12.03
2018-07-30T21:34:49.516Z,11.93
2018-07-30T21:37:18.614Z,10.48
2018-07-30T21:39:47.628Z,10.13
2018-07-30T21:42:16.641Z,10.43
2018-07-30T21:44:45.388Z,13.47
2018-07-30T21:47:14.475Z,10.88
2018-07-30T21:49:43.340Z,12.03
2018-07-30T21:52:12.078Z,9.93
2018-07-30T21:54:40.725Z,15.07
2018-07-30T21:57:09.485Z,12.37
2018-07-30T21:59:41.444Z,11.00
2018-07-30T22:02:10.750Z,11.95
2018-07-30T22:04:39.518Z,13.10
2018-07-30T22:07:08.645Z,11.12
2018-07-30T22:09:37.395Z,13.10
2018-07-30T22:12:06.664Z,11.33
2018-07-30T22:14:35.614Z,13.97
2018-07-30T22:17:04.431Z,13.60
2018-07-30T22:19:32.890Z,11.03
2018-07-30T22:22:01.726Z,11.10
2018-07-30T22:24:30.680Z,11.45
2018-07-30T22:26:59.729Z,12.40
2018-07-30T22:29:28.641Z,12.00
2018-07-30T22:31:57.395Z,13.57
2018-07-30T22:34:26.173Z,14.17
2018-07-30T22:36:54.955Z,13.93
2018-07-30T22:39:24.676Z,13.93
2018-07-30T22:41:53.401Z,14.23
2018-07-30T22:44:22.143Z,13.33
2018-07-30T22:46:50.924Z,12.03
2018-07-30T22:49:19.724Z,11.73
2018-07-30T22:51:48.465Z,10.50
2018-07-30T22:54:17.480Z,11.95
2018-07-30T22:56:46.462Z,11.10
2018-07-30T22:59:15.528Z,12.47
2018-07-30T23:01:44.560Z,9.23
2018-07-30T23:04:13.673Z,11.90
2018-07-30T23:06:42.711Z,10.65
2018-07-30T23:09:11.425Z,11.53
2018-07-30T23:11:40.256Z,9.90
2018-07-30T23:14:09.090Z,10.73
2018-07-30T23:16:37.837Z,11.67
2018-07-30T23:19:06.642Z,10.27
2018-07-30T23:21:35.631Z,11.00
2018-07-30T23:24:04.725Z,11.48
2018-07-30T23:26:33.785Z,10.90
2018-07-30T23:29:02.827Z,9.03
2018-07-30T23:31:31.679Z,9.00
2018-07-30T23:34:00.656Z,9.30
2018-07-30T23:36:29.221Z,9.37
2018-07-30T23:38:57.960Z,9.47
2018-07-30T23:41:26.707Z,9.93
2018-07-30T23:43:55.500Z,9.80
2018-07-30T23:46:24.803Z,9.63
2018-07-30T23:48:53.680Z,9.57
2018-07-30T23:51:22.671Z,10.85
2018-07-30T23:53:51.950Z,10.85
2018-07-30T23:56:20.879Z,9.23
2018-07-30T23:58:49.584Z,9.87
